sensor_id;sensor_type;location;lat;lon;timestamp;P1;durP1;ratioP1;P2;durP2;ratioP2
75854;SDS011;64502;59.976;30.316;2023-08-01T00:01:26;17.60;;;12.15;;
75854;SDS011;64502;59.976;30.316;2023-08-01T00:03:51;16.60;;;13.05;;
75854;SDS011;64502;59.976;30.316;2023-08-01T00:06:16;15.60;;;11.88;;
75854;SDS011;64502;59.976;30.316;2023-08-01T00:08:42;17.00;;;12.43;;
75854;SDS011;64502;59.976;30.316;2023-08-01T00:11:07;15.70;;;12.70;;
75854;SDS011;64502;59.976;30.316;2023-08-01T00:13:35;17.52;;;12.27;;
75854;SDS011;64502;59.976;30.316;2023-08-01T00:16:00;16.40;;;11.88;;
75854;SDS011;64502;59.976;30.316;2023-08-01T00:18:25;17.27;;;12.43;;
75854;SDS011;64502;59.976;30.316;2023-08-01T00:20:54;15.07;;;10.77;;
75854;SDS011;64502;59.976;30.316;2023-08-01T00:23:19;16.30;;;12.02;;
75854;SDS011;64502;59.976;30.316;2023-08-01T00:25:45;15.70;;;11.40;;
75854;SDS011;64502;59.976;30.316;2023-08-01T00:28:16;14.65;;;11.95;;
75854;SDS011;64502;59.976;30.316;2023-08-01T00:30:44;14.35;;;11.40;;
75854;SDS011;64502;59.976;30.316;2023-08-01T00:33:10;16.02;;;11.70;;
75854;SDS011;64502;59.976;30.316;2023-08-01T00:35:35;14.32;;;11.02;;
75854;SDS011;64502;59.976;30.316;2023-08-01T00:38:01;16.25;;;11.27;;
75854;SDS011;64502;59.976;30.316;2023-08-01T00:40:33;16.75;;;11.57;;
75854;SDS011;64502;59.976;30.316;2023-08-01T00:42:59;15.70;;;11.27;;
75854;SDS011;64502;59.976;30.316;2023-08-01T00:45:25;13.32;;;10.75;;
75854;SDS011;64502;59.976;30.316;2023-08-01T00:47:52;14.55;;;11.32;;
75854;SDS011;64502;59.976;30.316;2023-08-01T00:50:19;18.45;;;11.23;;
75854;SDS011;64502;59.976;30.316;2023-08-01T00:52:46;15.05;;;11.65;;
75854;SDS011;64502;59.976;30.316;2023-08-01T00:55:12;18.83;;;12.38;;
75854;SDS011;64502;59.976;30.316;2023-08-01T00:57:39;17.02;;;12.35;;
75854;SDS011;64502;59.976;30.316;2023-08-01T01:00:05;16.85;;;11.63;;
75854;SDS011;64502;59.976;30.316;2023-08-01T01:02:31;17.48;;;11.18;;
75854;SDS011;64502;59.976;30.316;2023-08-01T01:04:57;16.10;;;11.38;;
75854;SDS011;64502;59.976;30.316;2023-08-01T01:07:22;14.55;;;10.77;;
75854;SDS011;64502;59.976;30.316;2023-08-01T01:09:50;16.77;;;12.18;;
75854;SDS011;64502;59.976;30.316;2023-08-01T01:12:15;14.38;;;11.57;;
75854;SDS011;64502;59.976;30.316;2023-08-01T01:14:41;15.23;;;11.32;;
75854;SDS011;64502;59.976;30.316;2023-08-01T01:17:06;13.00;;;10.32;;
75854;SDS011;64502;59.976;30.316;2023-08-01T01:19:32;14.40;;;11.63;;
75854;SDS011;64502;59.976;30.316;2023-08-01T01:22:03;15.68;;;11.60;;
75854;SDS011;64502;59.976;30.316;2023-08-01T01:24:31;15.88;;;10.88;;
75854;SDS011;64502;59.976;30.316;2023-08-01T01:26:58;20.35;;;11.93;;
75854;SDS011;64502;59.976;30.316;2023-08-01T01:29:25;21.17;;;12.65;;
75854;SDS011;64502;59.976;30.316;2023-08-01T01:31:53;21.02;;;13.07;;
75854;SDS011;64502;59.976;30.316;2023-08-01T01:34:18;20.00;;;13.77;;
75854;SDS011;64502;59.976;30.316;2023-08-01T01:36:45;16.83;;;12.63;;
75854;SDS011;64502;59.976;30.316;2023-08-01T01:39:10;20.10;;;13.88;;
75854;SDS011;64502;59.976;30.316;2023-08-01T01:41:35;20.02;;;13.27;;
75854;SDS011;64502;59.976;30.316;2023-08-01T01:44:01;19.05;;;13.35;;
75854;SDS011;64502;59.976;30.316;2023-08-01T01:46:26;21.42;;;13.88;;
75854;SDS011;64502;59.976;30.316;2023-08-01T01:48:52;18.48;;;13.70;;
75854;SDS011;64502;59.976;30.316;2023-08-01T01:51:17;16.55;;;12.80;;
75854;SDS011;64502;59.976;30.316;2023-08-01T01:53:44;26.00;;;16.02;;
75854;SDS011;64502;59.976;30.316;2023-08-01T01:56:09;23.77;;;15.93;;
75854;SDS011;64502;59.976;30.316;2023-08-01T01:58:35;21.40;;;15.73;;
75854;SDS011;64502;59.976;30.316;2023-08-01T02:01:00;23.13;;;15.07;;
75854;SDS011;64502;59.976;30.316;2023-08-01T02:03:26;20.73;;;13.70;;
75854;SDS011;64502;59.976;30.316;2023-08-01T02:05:51;17.77;;;13.27;;
75854;SDS011;64502;59.976;30.316;2023-08-01T02:08:16;21.08;;;15.25;;
75854;SDS011;64502;59.976;30.316;2023-08-01T02:10:42;24.92;;;15.57;;
75854;SDS011;64502;59.976;30.316;2023-08-01T02:13:07;22.55;;;15.75;;
75854;SDS011;64502;59.976;30.316;2023-08-01T02:15:33;18.98;;;15.00;;
75854;SDS011;64502;59.976;30.316;2023-08-01T02:17:59;24.92;;;16.92;;
75854;SDS011;64502;59.976;30.316;2023-08-01T02:20:24;21.80;;;15.98;;
75854;SDS011;64502;59.976;30.316;2023-08-01T02:22:50;24.30;;;17.55;;
75854;SDS011;64502;59.976;30.316;2023-08-01T02:25:15;20.90;;;15.00;;
75854;SDS011;64502;59.976;30.316;2023-08-01T02:27:41;26.42;;;18.55;;
75854;SDS011;64502;59.976;30.316;2023-08-01T02:30:06;24.92;;;17.23;;
75854;SDS011;64502;59.976;30.316;2023-08-01T02:32:32;24.52;;;15.93;;
75854;SDS011;64502;59.976;30.316;2023-08-01T02:34:57;21.63;;;14.30;;
75854;SDS011;64502;59.976;30.316;2023-08-01T02:37:23;20.30;;;13.93;;
75854;SDS011;64502;59.976;30.316;2023-08-01T02:39:49;20.40;;;16.40;;
75854;SDS011;64502;59.976;30.316;2023-08-01T02:42:14;19.98;;;14.20;;
75854;SDS011;64502;59.976;30.316;2023-08-01T02:44:40;21.98;;;14.38;;
75854;SDS011;64502;59.976;30.316;2023-08-01T02:47:05;22.23;;;14.73;;
75854;SDS011;64502;59.976;30.316;2023-08-01T02:49:31;22.48;;;14.35;;
75854;SDS011;64502;59.976;30.316;2023-08-01T02:51:57;18.70;;;14.95;;
75854;SDS011;64502;59.976;30.316;2023-08-01T02:54:23;22.25;;;15.98;;
75854;SDS011;64502;59.976;30.316;2023-08-01T02:56:49;23.92;;;16.92;;
75854;SDS011;64502;59.976;30.316;2023-08-01T02:59:14;25.08;;;17.95;;
75854;SDS011;64502;59.976;30.316;2023-08-01T03:01:40;25.10;;;17.23;;
75854;SDS011;64502;59.976;30.316;2023-08-01T03:04:05;29.17;;;20.00;;
75854;SDS011;64502;59.976;30.316;2023-08-01T03:06:34;25.33;;;17.67;;
75854;SDS011;64502;59.976;30.316;2023-08-01T03:09:00;26.90;;;18.92;;
75854;SDS011;64502;59.976;30.316;2023-08-01T03:11:25;27.90;;;19.13;;
75854;SDS011;64502;59.976;30.316;2023-08-01T03:13:51;26.38;;;18.73;;
75854;SDS011;64502;59.976;30.316;2023-08-01T03:16:17;26.10;;;20.52;;
75854;SDS011;64502;59.976;30.316;2023-08-01T03:18:43;28.30;;;20.05;;
75854;SDS011;64502;59.976;30.316;2023-08-01T03:21:08;28.65;;;19.88;;
75854;SDS011;64502;59.976;30.316;2023-08-01T03:23:34;22.58;;;17.15;;
75854;SDS011;64502;59.976;30.316;2023-08-01T03:25:59;26.15;;;18.30;;
75854;SDS011;64502;59.976;30.316;2023-08-01T03:28:25;31.80;;;21.08;;
75854;SDS011;64502;59.976;30.316;2023-08-01T03:30:51;32.75;;;21.65;;
75854;SDS011;64502;59.976;30.316;2023-08-01T03:33:18;32.67;;;20.85;;
75854;SDS011;64502;59.976;30.316;2023-08-01T03:35:44;30.77;;;21.35;;
75854;SDS011;64502;59.976;30.316;2023-08-01T03:38:10;31.73;;;21.48;;
75854;SDS011;64502;59.976;30.316;2023-08-01T03:40:35;26.75;;;19.02;;
75854;SDS011;64502;59.976;30.316;2023-08-01T03:43:01;31.52;;;20.80;;
75854;SDS011;64502;59.976;30.316;2023-08-01T03:45:26;31.15;;;20.25;;
75854;SDS011;64502;59.976;30.316;2023-08-01T03:47:52;26.98;;;19.30;;
75854;SDS011;64502;59.976;30.316;2023-08-01T03:50:18;28.33;;;19.70;;
75854;SDS011;64502;59.976;30.316;2023-08-01T03:52:43;25.23;;;18.88;;
75854;SDS011;64502;59.976;30.316;2023-08-01T03:55:10;25.65;;;18.52;;
75854;SDS011;64502;59.976;30.316;2023-08-01T03:57:35;22.77;;;17.13;;
75854;SDS011;64502;59.976;30.316;2023-08-01T04:00:01;19.98;;;15.07;;
75854;SDS011;64502;59.976;30.316;2023-08-01T04:02:28;20.98;;;16.33;;
75854;SDS011;64502;59.976;30.316;2023-08-01T04:04:53;24.10;;;17.25;;
75854;SDS011;64502;59.976;30.316;2023-08-01T04:07:19;23.45;;;16.70;;
75854;SDS011;64502;59.976;30.316;2023-08-01T04:09:44;22.35;;;16.00;;
75854;SDS011;64502;59.976;30.316;2023-08-01T04:12:09;19.92;;;16.05;;
75854;SDS011;64502;59.976;30.316;2023-08-01T04:14:35;21.75;;;15.88;;
75854;SDS011;64502;59.976;30.316;2023-08-01T04:17:00;22.25;;;16.02;;
75854;SDS011;64502;59.976;30.316;2023-08-01T04:19:26;20.60;;;14.13;;
75854;SDS011;64502;59.976;30.316;2023-08-01T04:21:51;20.38;;;14.30;;
75854;SDS011;64502;59.976;30.316;2023-08-01T04:24:17;20.92;;;14.02;;
75854;SDS011;64502;59.976;30.316;2023-08-01T04:26:42;19.95;;;13.35;;
75854;SDS011;64502;59.976;30.316;2023-08-01T04:29:07;19.48;;;12.70;;
75854;SDS011;64502;59.976;30.316;2023-08-01T04:31:33;19.75;;;12.82;;
75854;SDS011;64502;59.976;30.316;2023-08-01T04:33:58;20.52;;;13.32;;
75854;SDS011;64502;59.976;30.316;2023-08-01T04:36:24;17.85;;;13.20;;
75854;SDS011;64502;59.976;30.316;2023-08-01T04:38:49;18.40;;;13.10;;
75854;SDS011;64502;59.976;30.316;2023-08-01T04:41:15;18.40;;;13.43;;
75854;SDS011;64502;59.976;30.316;2023-08-01T04:43:40;19.23;;;12.65;;
75854;SDS011;64502;59.976;30.316;2023-08-01T04:46:06;18.90;;;13.23;;
75854;SDS011;64502;59.976;30.316;2023-08-01T04:48:31;19.58;;;13.00;;
75854;SDS011;64502;59.976;30.316;2023-08-01T04:50:57;17.85;;;13.07;;
75854;SDS011;64502;59.976;30.316;2023-08-01T04:53:23;17.65;;;12.65;;
75854;SDS011;64502;59.976;30.316;2023-08-01T04:55:50;16.80;;;12.65;;
75854;SDS011;64502;59.976;30.316;2023-08-01T04:58:15;17.98;;;10.88;;
75854;SDS011;64502;59.976;30.316;2023-08-01T05:00:41;16.85;;;9.93;;
75854;SDS011;64502;59.976;30.316;2023-08-01T05:03:07;14.57;;;9.55;;
75854;SDS011;64502;59.976;30.316;2023-08-01T05:05:33;17.25;;;11.38;;
75854;SDS011;64502;59.976;30.316;2023-08-01T05:07:58;13.35;;;8.57;;
75854;SDS011;64502;59.976;30.316;2023-08-01T05:10:24;15.18;;;10.80;;
75854;SDS011;64502;59.976;30.316;2023-08-01T05:12:49;15.52;;;10.88;;
75854;SDS011;64502;59.976;30.316;2023-08-01T05:15:14;15.60;;;10.65;;
75854;SDS011;64502;59.976;30.316;2023-08-01T05:17:40;14.68;;;11.15;;
75854;SDS011;64502;59.976;30.316;2023-08-01T05:20:05;12.77;;;9.48;;
75854;SDS011;64502;59.976;30.316;2023-08-01T05:22:31;14.48;;;9.05;;
75854;SDS011;64502;59.976;30.316;2023-08-01T05:24:57;13.15;;;9.43;;
75854;SDS011;64502;59.976;30.316;2023-08-01T05:27:22;11.95;;;9.45;;
75854;SDS011;64502;59.976;30.316;2023-08-01T05:29:48;12.13;;;8.25;;
75854;SDS011;64502;59.976;30.316;2023-08-01T05:32:13;13.27;;;8.30;;
75854;SDS011;64502;59.976;30.316;2023-08-01T05:34:39;10.00;;;7.75;;
75854;SDS011;64502;59.976;30.316;2023-08-01T05:37:04;12.10;;;8.95;;
75854;SDS011;64502;59.976;30.316;2023-08-01T05:39:30;8.75;;;6.25;;
75854;SDS011;64502;59.976;30.316;2023-08-01T05:41:55;15.15;;;7.53;;
75854;SDS011;64502;59.976;30.316;2023-08-01T05:44:21;12.50;;;7.22;;
75854;SDS011;64502;59.976;30.316;2023-08-01T05:46:46;9.07;;;6.28;;
75854;SDS011;64502;59.976;30.316;2023-08-01T05:49:12;9.45;;;7.03;;
75854;SDS011;64502;59.976;30.316;2023-08-01T05:51:37;9.32;;;6.70;;
75854;SDS011;64502;59.976;30.316;2023-08-01T05:54:02;11.60;;;5.95;;
75854;SDS011;64502;59.976;30.316;2023-08-01T05:56:28;10.40;;;6.65;;
75854;SDS011;64502;59.976;30.316;2023-08-01T05:58:54;9.95;;;5.88;;
75854;SDS011;64502;59.976;30.316;2023-08-01T06:01:20;8.18;;;5.55;;
75854;SDS011;64502;59.976;30.316;2023-08-01T06:03:45;8.00;;;5.50;;
75854;SDS011;64502;59.976;30.316;2023-08-01T06:06:11;6.80;;;4.40;;
75854;SDS011;64502;59.976;30.316;2023-08-01T06:08:36;7.78;;;4.82;;
75854;SDS011;64502;59.976;30.316;2023-08-01T06:11:02;10.55;;;5.68;;
75854;SDS011;64502;59.976;30.316;2023-08-01T06:13:27;10.80;;;6.30;;
75854;SDS011;64502;59.976;30.316;2023-08-01T06:15:52;9.77;;;5.10;;
75854;SDS011;64502;59.976;30.316;2023-08-01T06:18:18;6.22;;;4.68;;
75854;SDS011;64502;59.976;30.316;2023-08-01T06:20:43;8.02;;;5.38;;
75854;SDS011;64502;59.976;30.316;2023-08-01T06:23:09;8.80;;;5.53;;
75854;SDS011;64502;59.976;30.316;2023-08-01T06:25:34;7.63;;;5.57;;
75854;SDS011;64502;59.976;30.316;2023-08-01T06:28:00;11.20;;;6.53;;
75854;SDS011;64502;59.976;30.316;2023-08-01T06:30:25;13.25;;;8.18;;
75854;SDS011;64502;59.976;30.316;2023-08-01T06:32:51;8.93;;;5.35;;
75854;SDS011;64502;59.976;30.316;2023-08-01T06:35:16;11.40;;;6.80;;
75854;SDS011;64502;59.976;30.316;2023-08-01T06:37:42;10.30;;;6.80;;
75854;SDS011;64502;59.976;30.316;2023-08-01T06:40:07;7.72;;;5.35;;
75854;SDS011;64502;59.976;30.316;2023-08-01T06:42:33;10.50;;;5.90;;
75854;SDS011;64502;59.976;30.316;2023-08-01T06:44:59;11.27;;;5.28;;
75854;SDS011;64502;59.976;30.316;2023-08-01T06:47:24;10.45;;;6.15;;
75854;SDS011;64502;59.976;30.316;2023-08-01T06:49:50;10.25;;;5.45;;
75854;SDS011;64502;59.976;30.316;2023-08-01T06:52:15;9.15;;;4.90;;
75854;SDS011;64502;59.976;30.316;2023-08-01T06:54:40;9.20;;;5.30;;
75854;SDS011;64502;59.976;30.316;2023-08-01T06:57:06;8.23;;;5.03;;
75854;SDS011;64502;59.976;30.316;2023-08-01T06:59:32;8.13;;;4.93;;
75854;SDS011;64502;59.976;30.316;2023-08-01T07:01:57;7.70;;;4.93;;
75854;SDS011;64502;59.976;30.316;2023-08-01T07:04:23;10.57;;;4.25;;
75854;SDS011;64502;59.976;30.316;2023-08-01T07:06:49;6.35;;;4.47;;
75854;SDS011;64502;59.976;30.316;2023-08-01T07:09:14;15.27;;;4.25;;
75854;SDS011;64502;59.976;30.316;2023-08-01T07:11:40;9.23;;;4.00;;
75854;SDS011;64502;59.976;30.316;2023-08-01T07:14:05;8.02;;;3.40;;
75854;SDS011;64502;59.976;30.316;2023-08-01T07:16:31;8.32;;;4.13;;
75854;SDS011;64502;59.976;30.316;2023-08-01T07:18:57;6.78;;;3.20;;
75854;SDS011;64502;59.976;30.316;2023-08-01T07:21:25;6.22;;;3.72;;
75854;SDS011;64502;59.976;30.316;2023-08-01T07:23:50;5.18;;;3.58;;
75854;SDS011;64502;59.976;30.316;2023-08-01T07:26:16;10.48;;;3.40;;
75854;SDS011;64502;59.976;30.316;2023-08-01T07:28:42;7.15;;;3.45;;
75854;SDS011;64502;59.976;30.316;2023-08-01T07:31:07;6.82;;;3.42;;
75854;SDS011;64502;59.976;30.316;2023-08-01T07:33:33;8.10;;;4.10;;
75854;SDS011;64502;59.976;30.316;2023-08-01T07:35:59;5.93;;;3.38;;
75854;SDS011;64502;59.976;30.316;2023-08-01T07:38:25;7.25;;;3.80;;
75854;SDS011;64502;59.976;30.316;2023-08-01T07:40:54;6.20;;;3.30;;
75854;SDS011;64502;59.976;30.316;2023-08-01T07:43:20;5.97;;;2.97;;
75854;SDS011;64502;59.976;30.316;2023-08-01T07:45:46;5.05;;;3.00;;
75854;SDS011;64502;59.976;30.316;2023-08-01T07:48:11;6.15;;;2.65;;
75854;SDS011;64502;59.976;30.316;2023-08-01T07:50:37;5.82;;;3.42;;
75854;SDS011;64502;59.976;30.316;2023-08-01T07:53:02;7.28;;;3.85;;
75854;SDS011;64502;59.976;30.316;2023-08-01T07:55:27;7.20;;;3.97;;
75854;SDS011;64502;59.976;30.316;2023-08-01T07:57:53;7.80;;;3.50;;
75854;SDS011;64502;59.976;30.316;2023-08-01T08:00:18;6.75;;;3.10;;
75854;SDS011;64502;59.976;30.316;2023-08-01T08:02:44;6.35;;;3.63;;
75854;SDS011;64502;59.976;30.316;2023-08-01T08:05:11;5.57;;;3.40;;
75854;SDS011;64502;59.976;30.316;2023-08-01T08:07:36;5.20;;;3.67;;
75854;SDS011;64502;59.976;30.316;2023-08-01T08:10:02;8.18;;;3.47;;
75854;SDS011;64502;59.976;30.316;2023-08-01T08:12:29;7.40;;;3.70;;
75854;SDS011;64502;59.976;30.316;2023-08-01T08:14:54;7.32;;;4.45;;
75854;SDS011;64502;59.976;30.316;2023-08-01T08:17:20;6.22;;;3.38;;
75854;SDS011;64502;59.976;30.316;2023-08-01T08:19:46;7.40;;;3.72;;
75854;SDS011;64502;59.976;30.316;2023-08-01T08:22:11;6.55;;;4.05;;
75854;SDS011;64502;59.976;30.316;2023-08-01T08:24:37;5.05;;;3.35;;
75854;SDS011;64502;59.976;30.316;2023-08-01T08:27:02;7.95;;;3.50;;
75854;SDS011;64502;59.976;30.316;2023-08-01T08:29:28;5.30;;;3.08;;
75854;SDS011;64502;59.976;30.316;2023-08-01T08:31:55;6.63;;;3.63;;
75854;SDS011;64502;59.976;30.316;2023-08-01T08:34:20;5.43;;;3.42;;
75854;SDS011;64502;59.976;30.316;2023-08-01T08:36:46;5.00;;;3.58;;
75854;SDS011;64502;59.976;30.316;2023-08-01T08:39:11;6.47;;;3.50;;
75854;SDS011;64502;59.976;30.316;2023-08-01T08:41:45;5.72;;;3.47;;
75854;SDS011;64502;59.976;30.316;2023-08-01T08:44:15;6.18;;;3.20;;
75854;SDS011;64502;59.976;30.316;2023-08-01T08:46:42;6.25;;;3.67;;
75854;SDS011;64502;59.976;30.316;2023-08-01T08:49:09;5.15;;;4.00;;
75854;SDS011;64502;59.976;30.316;2023-08-01T08:51:35;6.28;;;3.42;;
75854;SDS011;64502;59.976;30.316;2023-08-01T08:54:03;6.05;;;3.53;;
75854;SDS011;64502;59.976;30.316;2023-08-01T08:56:29;4.80;;;3.92;;
75854;SDS011;64502;59.976;30.316;2023-08-01T08:58:56;5.25;;;4.03;;
75854;SDS011;64502;59.976;30.316;2023-08-01T09:01:22;5.38;;;4.35;;
75854;SDS011;64502;59.976;30.316;2023-08-01T09:03:47;6.10;;;3.80;;
75854;SDS011;64502;59.976;30.316;2023-08-01T09:08:50;7.68;;;3.53;;
75854;SDS011;64502;59.976;30.316;2023-08-01T09:11:17;7.30;;;3.75;;
75854;SDS011;64502;59.976;30.316;2023-08-01T09:13:43;4.05;;;3.63;;
75854;SDS011;64502;59.976;30.316;2023-08-01T09:16:09;3.70;;;3.05;;
75854;SDS011;64502;59.976;30.316;2023-08-01T09:18:46;8.68;;;4.00;;
75854;SDS011;64502;59.976;30.316;2023-08-01T09:21:19;7.57;;;3.17;;
75854;SDS011;64502;59.976;30.316;2023-08-01T09:23:46;4.07;;;3.00;;
75854;SDS011;64502;59.976;30.316;2023-08-01T09:26:12;8.32;;;3.75;;
75854;SDS011;64502;59.976;30.316;2023-08-01T09:28:38;9.77;;;3.17;;
75854;SDS011;64502;59.976;30.316;2023-08-01T09:31:04;4.65;;;3.28;;
75854;SDS011;64502;59.976;30.316;2023-08-01T09:33:37;4.38;;;3.00;;
75854;SDS011;64502;59.976;30.316;2023-08-01T09:36:09;7.57;;;3.45;;
75854;SDS011;64502;59.976;30.316;2023-08-01T09:38:35;4.38;;;3.13;;
75854;SDS011;64502;59.976;30.316;2023-08-01T09:41:02;4.28;;;3.15;;
75854;SDS011;64502;59.976;30.316;2023-08-01T09:43:35;6.75;;;3.10;;
75854;SDS011;64502;59.976;30.316;2023-08-01T09:46:02;6.57;;;3.17;;
75854;SDS011;64502;59.976;30.316;2023-08-01T09:48:28;3.53;;;3.22;;
75854;SDS011;64502;59.976;30.316;2023-08-01T09:51:05;4.05;;;3.13;;
75854;SDS011;64502;59.976;30.316;2023-08-01T09:53:35;6.15;;;3.25;;
75854;SDS011;64502;59.976;30.316;2023-08-01T09:56:01;4.13;;;2.50;;
75854;SDS011;64502;59.976;30.316;2023-08-01T09:58:33;4.50;;;2.88;;
75854;SDS011;64502;59.976;30.316;2023-08-01T10:01:00;4.20;;;2.97;;
75854;SDS011;64502;59.976;30.316;2023-08-01T10:03:29;4.93;;;2.75;;
75854;SDS011;64502;59.976;30.316;2023-08-01T10:05:55;4.22;;;2.97;;
75854;SDS011;64502;59.976;30.316;2023-08-01T10:08:22;2.63;;;2.15;;
75854;SDS011;64502;59.976;30.316;2023-08-01T10:10:48;5.15;;;2.95;;
75854;SDS011;64502;59.976;30.316;2023-08-01T10:13:14;4.10;;;2.65;;
75854;SDS011;64502;59.976;30.316;2023-08-01T10:15:40;4.00;;;2.53;;
75854;SDS011;64502;59.976;30.316;2023-08-01T10:18:06;3.75;;;2.20;;
75854;SDS011;64502;59.976;30.316;2023-08-01T10:20:33;2.83;;;2.50;;
75854;SDS011;64502;59.976;30.316;2023-08-01T10:23:01;7.72;;;2.63;;
75854;SDS011;64502;59.976;30.316;2023-08-01T10:25:28;3.10;;;2.03;;
75854;SDS011;64502;59.976;30.316;2023-08-01T10:28:04;4.88;;;2.60;;
75854;SDS011;64502;59.976;30.316;2023-08-01T10:30:31;3.78;;;2.25;;
75854;SDS011;64502;59.976;30.316;2023-08-01T10:32:57;3.78;;;2.42;;
75854;SDS011;64502;59.976;30.316;2023-08-01T10:35:35;3.10;;;2.55;;
75854;SDS011;64502;59.976;30.316;2023-08-01T10:38:11;3.72;;;2.55;;
75854;SDS011;64502;59.976;30.316;2023-08-01T10:40:37;6.40;;;2.33;;
75854;SDS011;64502;59.976;30.316;2023-08-01T10:43:04;3.70;;;2.25;;
75854;SDS011;64502;59.976;30.316;2023-08-01T10:45:30;5.63;;;2.63;;
75854;SDS011;64502;59.976;30.316;2023-08-01T10:48:06;5.13;;;2.28;;
75854;SDS011;64502;59.976;30.316;2023-08-01T10:50:32;3.10;;;2.30;;
75854;SDS011;64502;59.976;30.316;2023-08-01T10:53:04;4.20;;;2.38;;
75854;SDS011;64502;59.976;30.316;2023-08-01T10:55:44;3.35;;;1.88;;
75854;SDS011;64502;59.976;30.316;2023-08-01T10:58:11;4.28;;;1.90;;
75854;SDS011;64502;59.976;30.316;2023-08-01T11:00:37;3.42;;;2.13;;
75854;SDS011;64502;59.976;30.316;2023-08-01T11:03:02;2.47;;;1.85;;
75854;SDS011;64502;59.976;30.316;2023-08-01T11:05:28;2.70;;;2.25;;
75854;SDS011;64502;59.976;30.316;2023-08-01T11:07:58;3.72;;;2.20;;
75854;SDS011;64502;59.976;30.316;2023-08-01T11:10:26;4.03;;;2.20;;
75854;SDS011;64502;59.976;30.316;2023-08-01T11:12:53;3.03;;;2.20;;
75854;SDS011;64502;59.976;30.316;2023-08-01T11:15:19;3.70;;;2.03;;
75854;SDS011;64502;59.976;30.316;2023-08-01T11:17:49;2.90;;;1.95;;
75854;SDS011;64502;59.976;30.316;2023-08-01T11:20:16;4.38;;;2.50;;
75854;SDS011;64502;59.976;30.316;2023-08-01T11:22:51;3.08;;;2.08;;
75854;SDS011;64502;59.976;30.316;2023-08-01T11:25:19;3.28;;;2.00;;
75854;SDS011;64502;59.976;30.316;2023-08-01T11:27:45;3.97;;;1.83;;
75854;SDS011;64502;59.976;30.316;2023-08-01T11:30:11;5.55;;;1.45;;
75854;SDS011;64502;59.976;30.316;2023-08-01T11:32:37;4.35;;;2.83;;
75854;SDS011;64502;59.976;30.316;2023-08-01T11:35:03;3.33;;;2.17;;
75854;SDS011;64502;59.976;30.316;2023-08-01T11:37:29;3.40;;;1.92;;
75854;SDS011;64502;59.976;30.316;2023-08-01T11:39:55;4.55;;;1.83;;
75854;SDS011;64502;59.976;30.316;2023-08-01T11:42:22;2.15;;;1.80;;
75854;SDS011;64502;59.976;30.316;2023-08-01T11:44:48;2.55;;;0.88;;
75854;SDS011;64502;59.976;30.316;2023-08-01T11:47:14;3.60;;;1.90;;
75854;SDS011;64502;59.976;30.316;2023-08-01T11:49:47;4.22;;;1.90;;
75854;SDS011;64502;59.976;30.316;2023-08-01T11:52:23;2.55;;;1.70;;
75854;SDS011;64502;59.976;30.316;2023-08-01T11:54:48;3.40;;;1.80;;
75854;SDS011;64502;59.976;30.316;2023-08-01T11:57:14;5.32;;;1.75;;
75854;SDS011;64502;59.976;30.316;2023-08-01T11:59:49;2.35;;;1.73;;
75854;SDS011;64502;59.976;30.316;2023-08-01T12:04:48;3.15;;;2.15;;
75854;SDS011;64502;59.976;30.316;2023-08-01T12:07:14;4.43;;;1.70;;
75854;SDS011;64502;59.976;30.316;2023-08-01T12:09:41;2.45;;;1.92;;
75854;SDS011;64502;59.976;30.316;2023-08-01T12:12:08;2.90;;;1.65;;
75854;SDS011;64502;59.976;30.316;2023-08-01T12:14:38;3.47;;;2.20;;
75854;SDS011;64502;59.976;30.316;2023-08-01T12:17:05;4.15;;;2.30;;
75854;SDS011;64502;59.976;30.316;2023-08-01T12:19:30;3.35;;;1.95;;
75854;SDS011;64502;59.976;30.316;2023-08-01T12:21:58;3.30;;;1.98;;
75854;SDS011;64502;59.976;30.316;2023-08-01T12:24:24;3.55;;;1.63;;
75854;SDS011;64502;59.976;30.316;2023-08-01T12:26:50;3.63;;;1.85;;
75854;SDS011;64502;59.976;30.316;2023-08-01T12:29:15;4.70;;;1.88;;
75854;SDS011;64502;59.976;30.316;2023-08-01T12:31:40;3.72;;;1.27;;
75854;SDS011;64502;59.976;30.316;2023-08-01T12:34:06;3.30;;;2.10;;
75854;SDS011;64502;59.976;30.316;2023-08-01T12:36:31;2.20;;;1.50;;
75854;SDS011;64502;59.976;30.316;2023-08-01T12:38:57;2.53;;;1.92;;
75854;SDS011;64502;59.976;30.316;2023-08-01T12:41:22;2.38;;;1.88;;
75854;SDS011;64502;59.976;30.316;2023-08-01T12:43:48;3.42;;;1.50;;
75854;SDS011;64502;59.976;30.316;2023-08-01T12:46:13;2.13;;;1.63;;
75854;SDS011;64502;59.976;30.316;2023-08-01T12:48:39;4.55;;;2.60;;
75854;SDS011;64502;59.976;30.316;2023-08-01T12:51:04;2.63;;;1.88;;
75854;SDS011;64502;59.976;30.316;2023-08-01T12:53:30;3.55;;;2.38;;
75854;SDS011;64502;59.976;30.316;2023-08-01T12:55:56;3.10;;;1.50;;
75854;SDS011;64502;59.976;30.316;2023-08-01T12:58:22;2.13;;;1.77;;
75854;SDS011;64502;59.976;30.316;2023-08-01T13:00:47;2.58;;;0.90;;
75854;SDS011;64502;59.976;30.316;2023-08-01T13:03:13;2.10;;;1.40;;
75854;SDS011;64502;59.976;30.316;2023-08-01T13:05:39;2.97;;;1.58;;
75854;SDS011;64502;59.976;30.316;2023-08-01T13:08:05;3.78;;;2.28;;
75854;SDS011;64502;59.976;30.316;2023-08-01T13:10:32;3.00;;;1.38;;
75854;SDS011;64502;59.976;30.316;2023-08-01T13:12:58;2.58;;;1.42;;
75854;SDS011;64502;59.976;30.316;2023-08-01T13:15:24;3.17;;;1.23;;
75854;SDS011;64502;59.976;30.316;2023-08-01T13:17:49;3.05;;;2.10;;
75854;SDS011;64502;59.976;30.316;2023-08-01T13:20:15;3.22;;;2.33;;
75854;SDS011;64502;59.976;30.316;2023-08-01T13:22:41;2.53;;;1.95;;
75854;SDS011;64502;59.976;30.316;2023-08-01T13:25:06;3.17;;;1.60;;
75854;SDS011;64502;59.976;30.316;2023-08-01T13:27:33;2.17;;;1.98;;
75854;SDS011;64502;59.976;30.316;2023-08-01T13:30:00;2.40;;;1.90;;
75854;SDS011;64502;59.976;30.316;2023-08-01T13:32:25;2.45;;;1.55;;
75854;SDS011;64502;59.976;30.316;2023-08-01T13:34:51;3.30;;;1.92;;
75854;SDS011;64502;59.976;30.316;2023-08-01T13:37:16;3.92;;;1.70;;
75854;SDS011;64502;59.976;30.316;2023-08-01T13:39:42;1.90;;;1.23;;
75854;SDS011;64502;59.976;30.316;2023-08-01T13:42:07;1.77;;;1.35;;
75854;SDS011;64502;59.976;30.316;2023-08-01T13:44:32;2.97;;;1.40;;
75854;SDS011;64502;59.976;30.316;2023-08-01T13:46:58;2.85;;;1.42;;
75854;SDS011;64502;59.976;30.316;2023-08-01T13:49:23;2.85;;;2.10;;
75854;SDS011;64502;59.976;30.316;2023-08-01T13:51:49;2.92;;;1.05;;
75854;SDS011;64502;59.976;30.316;2023-08-01T13:54:14;3.30;;;1.65;;
75854;SDS011;64502;59.976;30.316;2023-08-01T13:56:40;3.15;;;1.40;;
75854;SDS011;64502;59.976;30.316;2023-08-01T13:59:05;2.58;;;1.45;;
75854;SDS011;64502;59.976;30.316;2023-08-01T14:01:31;2.75;;;1.65;;
75854;SDS011;64502;59.976;30.316;2023-08-01T14:03:56;5.18;;;2.00;;
75854;SDS011;64502;59.976;30.316;2023-08-01T14:06:22;2.58;;;1.70;;
75854;SDS011;64502;59.976;30.316;2023-08-01T14:08:47;2.95;;;2.13;;
75854;SDS011;64502;59.976;30.316;2023-08-01T14:11:13;1.95;;;1.20;;
75854;SDS011;64502;59.976;30.316;2023-08-01T14:13:38;3.47;;;1.83;;
75854;SDS011;64502;59.976;30.316;2023-08-01T14:16:04;2.50;;;1.25;;
75854;SDS011;64502;59.976;30.316;2023-08-01T14:18:29;5.15;;;1.52;;
75854;SDS011;64502;59.976;30.316;2023-08-01T14:20:55;4.38;;;2.40;;
75854;SDS011;64502;59.976;30.316;2023-08-01T14:23:21;2.55;;;1.52;;